createdAt,value
2023-05-22T00:01:46.925Z,16.15
2023-05-22T00:04:21.130Z,15.92
2023-05-22T00:06:49.141Z,15.69
2023-05-22T00:09:16.597Z,15.55
2023-05-22T00:11:43.965Z,15.45
2023-05-22T00:14:13.393Z,15.46
2023-05-22T00:16:41.371Z,15.54
2023-05-22T00:19:13.636Z,15.63
2023-05-22T00:21:41.084Z,15.68
2023-05-22T00:24:08.547Z,15.61
2023-05-22T00:26:35.872Z,15.61
2023-05-22T00:29:03.683Z,15.60
2023-05-22T00:31:30.914Z,15.69
2023-05-22T00:33:59.202Z,15.80
2023-05-22T00:40:52.570Z,15.98
2023-05-22T00:43:20.131Z,15.97
2023-05-22T00:45:47.720Z,15.94
2023-05-22T00:48:15.650Z,15.86
2023-05-22T00:50:44.422Z,15.68
2023-05-22T00:53:12.446Z,15.58
2023-05-22T00:55:40.237Z,15.47
2023-05-22T00:58:09.721Z,15.34
2023-05-22T01:00:39.471Z,15.49
2023-05-22T01:03:10.116Z,15.51
2023-05-22T01:05:38.180Z,15.50
2023-05-22T01:08:07.441Z,15.61
2023-05-22T01:10:36.671Z,15.67
2023-05-22T01:13:42.947Z,15.67
2023-05-22T01:16:19.296Z,15.62
2023-05-22T01:19:05.269Z,15.48
2023-05-22T01:22:01.676Z,15.30
2023-05-22T01:24:53.116Z,15.06
2023-05-22T01:27:35.424Z,14.87
2023-05-22T01:30:56.070Z,14.78
2023-05-22T01:33:27.516Z,14.83
2023-05-22T01:36:00.027Z,14.91
2023-05-22T01:38:27.819Z,14.91
2023-05-22T01:40:56.248Z,15.06
2023-05-22T01:43:23.588Z,15.10
2023-05-22T01:45:51.555Z,15.07
2023-05-22T01:48:18.819Z,15.13
2023-05-22T01:50:51.232Z,15.18
2023-05-22T01:53:28.399Z,15.12
2023-05-22T01:56:07.808Z,15.13
2023-05-22T01:58:45.057Z,15.13
2023-05-22T02:01:15.037Z,15.16
2023-05-22T02:03:42.849Z,15.09
2023-05-22T02:06:13.181Z,15.08
2023-05-22T02:08:43.087Z,15.03
2023-05-22T02:11:15.011Z,15.03
2023-05-22T02:13:43.060Z,14.95
2023-05-22T02:16:12.342Z,15.03
2023-05-22T02:18:42.048Z,15.00
2023-05-22T02:21:09.516Z,14.94
2023-05-22T02:23:37.977Z,14.88
2023-05-22T02:26:05.832Z,14.83
2023-05-22T02:28:33.368Z,14.84
2023-05-22T02:31:01.129Z,14.93
2023-05-22T02:33:29.937Z,14.98
2023-05-22T02:35:57.497Z,14.91
2023-05-22T02:38:24.788Z,14.86
2023-05-22T02:40:52.497Z,14.78
2023-05-22T02:43:21.236Z,14.64
2023-05-22T02:45:48.561Z,14.62
2023-05-22T02:48:16.888Z,14.66
2023-05-22T02:50:44.349Z,14.57
2023-05-22T02:53:12.072Z,14.55
2023-05-22T02:55:40.310Z,14.45
2023-05-22T02:58:11.313Z,14.35
2023-05-22T03:00:38.938Z,14.27
2023-05-22T03:03:07.310Z,14.17
2023-05-22T03:05:35.368Z,14.13
2023-05-22T03:08:02.698Z,14.11
2023-05-22T03:10:31.268Z,14.13
2023-05-22T03:12:58.518Z,14.03
2023-05-22T03:15:26.171Z,13.92
2023-05-22T03:17:58.093Z,13.83
2023-05-22T03:20:25.550Z,13.80
2023-05-22T03:22:52.807Z,13.82
2023-05-22T03:25:21.563Z,13.71
2023-05-22T03:27:48.852Z,13.75
2023-05-22T03:30:16.327Z,13.85
2023-05-22T03:32:53.257Z,13.75
2023-05-22T03:35:20.986Z,13.76
2023-05-22T03:37:48.402Z,13.84
2023-05-22T03:40:18.170Z,13.90
2023-05-22T03:42:45.419Z,13.87
2023-05-22T03:45:13.298Z,13.82
2023-05-22T03:47:40.800Z,13.89
2023-05-22T03:50:08.846Z,13.92
2023-05-22T03:52:36.109Z,13.95
2023-05-22T03:55:05.516Z,13.98
2023-05-22T03:57:33.128Z,14.06
2023-05-22T04:00:09.441Z,14.10
2023-05-22T04:02:45.268Z,14.31
2023-05-22T04:05:13.340Z,14.17
2023-05-22T04:07:40.718Z,14.30
2023-05-22T04:10:08.487Z,14.28
2023-05-22T04:12:37.017Z,14.27
2023-05-22T04:15:04.596Z,14.27
2023-05-22T04:17:33.971Z,14.29
2023-05-22T04:20:01.529Z,14.35
2023-05-22T04:22:31.004Z,14.49
2023-05-22T04:24:58.279Z,14.46
2023-05-22T04:27:26.525Z,14.59
2023-05-22T04:29:53.799Z,14.74
2023-05-22T04:32:25.238Z,14.97
2023-05-22T04:34:52.553Z,15.27
2023-05-22T04:37:20.533Z,15.74
2023-05-22T04:39:52.955Z,16.64
2023-05-22T04:42:20.566Z,17.26
2023-05-22T04:44:48.382Z,17.69
2023-05-22T04:47:15.588Z,17.92
2023-05-22T04:49:43.770Z,18.23
2023-05-22T04:52:12.080Z,18.37
2023-05-22T04:54:39.560Z,18.86
2023-05-22T04:57:06.807Z,19.17
2023-05-22T04:59:39.451Z,19.25
2023-05-22T05:02:07.234Z,19.29
2023-05-22T05:04:36.589Z,19.33
2023-05-22T05:07:05.108Z,19.24
2023-05-22T05:09:32.793Z,18.76
2023-05-22T05:12:02.222Z,18.55
2023-05-22T05:14:29.914Z,18.43
2023-05-22T05:16:58.696Z,17.72
2023-05-22T05:19:26.384Z,17.54
2023-05-22T05:21:53.689Z,17.51
2023-05-22T05:24:22.117Z,17.35
2023-05-22T05:26:51.170Z,16.98
2023-05-22T05:29:20.140Z,17.07
2023-05-22T05:31:54.111Z,17.11
2023-05-22T05:34:31.883Z,17.10
2023-05-22T05:37:05.303Z,17.42
2023-05-22T05:39:33.468Z,18.02
2023-05-22T05:42:03.307Z,18.55
2023-05-22T05:44:30.663Z,18.99
2023-05-22T05:46:58.170Z,19.40
2023-05-22T05:49:27.102Z,19.85
2023-05-22T05:51:55.310Z,20.30
2023-05-22T05:54:23.256Z,20.83
2023-05-22T05:56:53.405Z,20.37
2023-05-22T05:59:20.749Z,20.33
2023-05-22T06:02:20.231Z,20.84
2023-05-22T06:04:48.494Z,21.03
2023-05-22T06:07:18.296Z,20.89
2023-05-22T06:09:47.409Z,21.12
2023-05-22T06:12:33.376Z,21.23
2023-05-22T06:15:00.755Z,21.85
2023-05-22T06:17:28.705Z,22.13
2023-05-22T06:19:56.580Z,22.39
2023-05-22T06:22:25.796Z,22.30
2023-05-22T06:24:56.435Z,22.31
2023-05-22T06:27:29.857Z,21.93
2023-05-22T06:29:57.172Z,21.88
2023-05-22T06:32:28.588Z,22.29
2023-05-22T06:34:55.867Z,22.65
2023-05-22T06:37:23.635Z,22.77
2023-05-22T06:39:51.961Z,23.04
2023-05-22T06:42:38.879Z,23.72
2023-05-22T06:45:24.745Z,23.90
2023-05-22T06:48:12.311Z,23.63
2023-05-22T06:50:50.895Z,23.54
2023-05-22T06:53:18.371Z,23.41
2023-05-22T06:55:45.568Z,23.89
2023-05-22T06:58:21.623Z,24.26
2023-05-22T07:00:50.102Z,24.40
2023-05-22T07:03:23.053Z,24.50
2023-05-22T07:06:12.396Z,24.35
2023-05-22T07:08:40.044Z,24.39
2023-05-22T07:11:08.707Z,24.13
2023-05-22T07:13:36.599Z,24.29
2023-05-22T07:16:03.956Z,24.64
2023-05-22T07:18:31.426Z,24.75
2023-05-22T07:20:59.005Z,24.72
2023-05-22T07:23:26.488Z,25.02
2023-05-22T07:25:53.898Z,24.52
2023-05-22T07:28:24.670Z,24.04
2023-05-22T07:31:02.412Z,23.83
2023-05-22T07:33:30.867Z,24.04
2023-05-22T07:35:58.197Z,24.12
2023-05-22T07:38:25.997Z,24.23
2023-05-22T07:40:59.502Z,24.67
2023-05-22T07:43:28.170Z,24.93
2023-05-22T07:45:56.553Z,24.75
2023-05-22T07:48:26.797Z,24.83
2023-05-22T07:50:54.860Z,24.62
2023-05-22T07:53:21.998Z,24.85
2023-05-22T07:55:52.071Z,25.05
2023-05-22T07:58:19.705Z,25.06
2023-05-22T08:00:47.810Z,24.99
2023-05-22T08:03:15.250Z,25.44
2023-05-22T08:05:43.077Z,25.94
2023-05-22T08:08:17.859Z,25.36
2023-05-22T08:11:14.458Z,25.98
2023-05-22T08:13:43.016Z,26.37
2023-05-22T08:16:11.280Z,26.56
2023-05-22T08:18:38.534Z,26.64
2023-05-22T08:21:05.888Z,26.93
2023-05-22T08:23:36.458Z,26.94
2023-05-22T08:26:04.215Z,26.96
2023-05-22T08:28:31.346Z,26.72
2023-05-22T08:30:58.420Z,25.74
2023-05-22T08:33:26.856Z,25.27
2023-05-22T08:35:54.176Z,25.18
2023-05-22T08:38:22.112Z,25.18
2023-05-22T08:40:50.364Z,24.92
2023-05-22T08:43:20.928Z,24.81
2023-05-22T08:45:59.785Z,25.09
2023-05-22T08:48:31.923Z,25.25
2023-05-22T08:51:05.915Z,25.27
2023-05-22T08:53:35.874Z,25.15
2023-05-22T08:56:06.056Z,25.73
2023-05-22T08:58:38.143Z,25.98
2023-05-22T09:01:07.143Z,26.38
2023-05-22T09:03:36.102Z,26.69
2023-05-22T09:06:03.706Z,26.75
2023-05-22T09:08:31.016Z,26.81
2023-05-22T09:10:58.455Z,26.79
2023-05-22T09:13:29.351Z,26.86
2023-05-22T09:16:11.033Z,26.77
2023-05-22T09:18:39.297Z,27.01
2023-05-22T09:24:43.480Z,26.36
2023-05-22T09:27:11.980Z,26.74
2023-05-22T09:29:49.800Z,26.81
2023-05-22T09:32:18.703Z,26.67
2023-05-22T09:34:47.068Z,26.49
2023-05-22T09:37:15.161Z,26.53
2023-05-22T09:42:35.836Z,26.93
2023-05-22T09:45:07.248Z,26.54
2023-05-22T09:47:38.196Z,25.75
2023-05-22T09:50:11.623Z,25.16
2023-05-22T09:52:41.097Z,24.90
2023-05-22T09:55:12.295Z,24.41
2023-05-22T09:57:54.042Z,24.25
2023-05-22T10:00:25.484Z,24.03
2023-05-22T10:03:08.367Z,23.99
2023-05-22T10:05:39.088Z,24.11
2023-05-22T10:08:37.474Z,23.90
2023-05-22T10:11:09.236Z,23.65
2023-05-22T10:13:37.969Z,23.38
2023-05-22T10:16:07.851Z,23.55
2023-05-22T10:18:38.510Z,23.55
2023-05-22T10:21:07.158Z,23.51
2023-05-22T10:23:35.166Z,23.39
2023-05-22T10:26:06.663Z,23.43
2023-05-22T10:28:54.233Z,23.68
2023-05-22T10:31:45.997Z,23.80
2023-05-22T10:34:46.982Z,24.60
2023-05-22T10:37:41.977Z,25.32
2023-05-22T10:40:18.288Z,25.93
2023-05-22T10:42:48.670Z,26.20
2023-05-22T10:45:27.912Z,26.44
2023-05-22T10:48:12.475Z,26.63
2023-05-22T10:50:53.924Z,26.59
2023-05-22T10:53:26.250Z,26.62
2023-05-22T10:55:57.735Z,26.70
2023-05-22T10:58:31.842Z,26.58
2023-05-22T11:01:16.820Z,26.83
2023-05-22T11:04:11.899Z,26.80
2023-05-22T11:07:06.802Z,26.66
2023-05-22T11:09:41.542Z,26.68
2023-05-22T11:12:31.016Z,26.54
2023-05-22T11:15:12.881Z,26.33
2023-05-22T11:17:53.613Z,26.03
2023-05-22T11:20:30.748Z,25.59
2023-05-22T11:23:08.940Z,25.40
2023-05-22T11:25:41.242Z,25.25
2023-05-22T11:28:10.677Z,25.27
2023-05-22T11:30:47.918Z,25.33
2023-05-22T11:33:18.886Z,25.25
2023-05-22T11:35:51.588Z,25.34
2023-05-22T11:38:21.744Z,25.39
2023-05-22T11:40:54.856Z,25.66
2023-05-22T11:43:36.048Z,25.71
2023-05-22T11:46:22.622Z,25.78
2023-05-22T11:48:54.154Z,25.93
2023-05-22T11:51:24.362Z,26.03
2023-05-22T11:53:52.168Z,25.95
2023-05-22T11:56:26.334Z,25.98
2023-05-22T11:58:56.245Z,25.96
2023-05-22T12:01:25.734Z,26.03
2023-05-22T12:03:56.178Z,26.00
2023-05-22T12:06:27.516Z,25.69
2023-05-22T12:08:57.988Z,25.81
2023-05-22T12:11:28.676Z,25.96
2023-05-22T12:14:01.873Z,25.85
2023-05-22T12:16:38.122Z,25.90
2023-05-22T12:19:12.485Z,25.85
2023-05-22T12:21:50.625Z,26.01
2023-05-22T12:24:23.294Z,26.07
2023-05-22T12:26:52.484Z,26.36
2023-05-22T12:29:24.707Z,26.57
2023-05-22T12:31:59.124Z,26.47
2023-05-22T12:34:26.696Z,26.64
2023-05-22T12:36:59.759Z,26.49
2023-05-22T12:39:31.075Z,26.38
2023-05-22T12:41:58.319Z,26.17
2023-05-22T12:44:27.804Z,26.14
2023-05-22T12:46:55.038Z,26.12
2023-05-22T12:49:25.979Z,26.16
2023-05-22T12:51:54.044Z,26.29
2023-05-22T12:54:22.799Z,26.32
2023-05-22T12:56:52.793Z,26.40
2023-05-22T12:59:22.248Z,26.49
2023-05-22T13:01:56.948Z,26.73
2023-05-22T13:04:24.690Z,26.79
2023-05-22T13:06:51.840Z,26.94
2023-05-22T13:09:20.150Z,26.86
2023-05-22T13:11:50.224Z,27.01
2023-05-22T13:14:20.169Z,27.32
2023-05-22T13:16:50.133Z,26.83
2023-05-22T13:19:32.801Z,26.93
2023-05-22T13:22:03.373Z,26.79
2023-05-22T13:24:30.480Z,26.68
2023-05-22T13:27:01.944Z,26.60
2023-05-22T13:29:29.272Z,26.84
2023-05-22T13:31:59.218Z,26.77
2023-05-22T13:34:28.765Z,26.84
2023-05-22T13:36:58.566Z,26.85
2023-05-22T13:39:29.243Z,26.86
2023-05-22T13:41:57.202Z,26.61
2023-05-22T13:44:28.426Z,26.26
2023-05-22T13:49:47.241Z,26.30
2023-05-22T13:52:17.550Z,26.34
2023-05-22T13:54:45.027Z,26.35
2023-05-22T13:57:23.174Z,26.45
2023-05-22T13:59:50.430Z,26.30
2023-05-22T14:02:22.617Z,26.28
2023-05-22T14:04:54.003Z,26.43
2023-05-22T14:07:25.255Z,26.64
2023-05-22T14:10:05.448Z,26.54
2023-05-22T14:12:38.489Z,26.29
2023-05-22T14:15:18.911Z,26.33
2023-05-22T14:17:52.222Z,26.44
2023-05-22T14:20:41.816Z,26.16
2023-05-22T14:23:09.214Z,26.13
2023-05-22T14:25:36.367Z,25.94
2023-05-22T14:28:03.640Z,25.87
2023-05-22T14:30:37.126Z,25.67
2023-05-22T14:33:04.678Z,25.58
2023-05-22T14:35:41.183Z,25.60
2023-05-22T14:38:11.075Z,25.77
2023-05-22T14:40:38.224Z,25.66
2023-05-22T14:43:08.978Z,25.55
2023-05-22T14:45:36.327Z,25.70
2023-05-22T14:48:10.178Z,25.74
2023-05-22T14:50:48.303Z,25.66
2023-05-22T14:53:16.102Z,25.79
2023-05-22T14:55:43.308Z,25.74
2023-05-22T14:58:16.142Z,25.46
2023-05-22T15:00:46.287Z,25.39
2023-05-22T15:03:13.924Z,25.15
2023-05-22T15:05:47.679Z,25.14
2023-05-22T15:08:16.915Z,24.99
2023-05-22T15:10:44.982Z,24.87
2023-05-22T15:13:18.022Z,24.75
2023-05-22T15:15:51.365Z,24.62
2023-05-22T15:18:22.100Z,24.70
2023-05-22T15:20:51.484Z,24.45
2023-05-22T15:23:18.755Z,24.52
2023-05-22T15:25:49.151Z,24.51
2023-05-22T15:28:23.768Z,24.30
2023-05-22T15:30:53.738Z,24.16
2023-05-22T15:33:25.151Z,24.09
2023-05-22T15:35:52.437Z,24.14
2023-05-22T15:38:25.009Z,24.03
2023-05-22T15:40:52.262Z,23.93
2023-05-22T15:43:20.034Z,23.87
2023-05-22T15:45:54.058Z,23.63
2023-05-22T15:48:21.607Z,23.47
2023-05-22T15:50:50.476Z,23.38
2023-05-22T15:53:17.699Z,23.34
2023-05-22T15:55:44.875Z,23.29
2023-05-22T15:58:14.720Z,23.25
2023-05-22T16:00:44.399Z,23.19
2023-05-22T16:03:11.782Z,23.11
2023-05-22T16:05:40.270Z,23.14
2023-05-22T16:08:11.314Z,23.04
2023-05-22T16:10:41.618Z,23.02
2023-05-22T16:13:11.491Z,22.90
2023-05-22T16:15:40.567Z,22.90
2023-05-22T16:18:09.177Z,23.04
2023-05-22T16:20:36.821Z,23.12
2023-05-22T16:23:06.457Z,23.17
2023-05-22T16:25:36.695Z,23.27
2023-05-22T16:28:07.169Z,23.27
2023-05-22T16:30:37.306Z,23.25
2023-05-22T16:33:04.710Z,23.27
2023-05-22T16:35:32.830Z,23.09
2023-05-22T16:38:02.390Z,22.94
2023-05-22T16:40:29.863Z,22.86
2023-05-22T16:42:57.200Z,22.71
2023-05-22T16:48:14.148Z,22.37
2023-05-22T16:50:42.576Z,22.24
2023-05-22T16:53:13.737Z,22.23
2023-05-22T16:55:45.383Z,22.10
2023-05-22T16:58:14.807Z,21.89
2023-05-22T17:00:48.371Z,21.81
2023-05-22T17:03:18.660Z,21.79
2023-05-22T17:05:51.170Z,21.74
2023-05-22T17:08:21.257Z,21.64
2023-05-22T17:10:52.827Z,21.52
2023-05-22T17:13:23.802Z,21.36
2023-05-22T17:15:53.914Z,21.30
2023-05-22T17:18:22.299Z,20.98
2023-05-22T17:20:51.214Z,20.97
2023-05-22T17:23:21.309Z,20.94
2023-05-22T17:25:51.042Z,20.85
2023-05-22T17:28:21.427Z,20.79
2023-05-22T17:30:56.034Z,20.84
2023-05-22T17:33:25.865Z,20.85
2023-05-22T17:35:56.062Z,20.73
2023-05-22T17:38:23.529Z,20.67
2023-05-22T17:40:52.155Z,20.74
2023-05-22T17:43:19.880Z,20.74
2023-05-22T17:45:50.207Z,20.71
2023-05-22T17:48:23.497Z,20.71
2023-05-22T17:50:52.083Z,20.86
2023-05-22T17:53:20.843Z,20.72
2023-05-22T17:55:49.898Z,20.65
2023-05-22T17:58:17.256Z,20.53
2023-05-22T18:00:45.748Z,20.47
2023-05-22T18:03:13.405Z,20.43
2023-05-22T18:05:40.658Z,20.47
2023-05-22T18:08:07.815Z,20.48
2023-05-22T18:10:35.129Z,20.37
2023-05-22T18:13:02.712Z,20.30
2023-05-22T18:15:35.079Z,20.24
2023-05-22T18:18:05.792Z,20.06
2023-05-22T18:20:33.492Z,20.19
2023-05-22T18:23:03.856Z,20.21
2023-05-22T18:25:31.013Z,20.20
2023-05-22T18:27:58.396Z,20.13
2023-05-22T18:30:25.598Z,20.01
2023-05-22T18:32:52.768Z,20.06
2023-05-22T18:35:19.958Z,20.03
2023-05-22T18:37:50.168Z,19.92
2023-05-22T18:40:17.320Z,19.89
2023-05-22T18:42:44.494Z,19.89
2023-05-22T18:45:12.158Z,19.81
2023-05-22T18:47:40.251Z,19.76
2023-05-22T18:50:13.471Z,19.68
2023-05-22T18:52:43.063Z,19.73
2023-05-22T18:55:10.490Z,19.63
2023-05-22T18:57:37.884Z,19.60
2023-05-22T19:00:12.553Z,19.56
2023-05-22T19:02:42.738Z,19.41
2023-05-22T19:05:12.761Z,19.34
2023-05-22T19:07:39.871Z,19.31
2023-05-22T19:10:08.292Z,19.33
2023-05-22T19:12:36.572Z,19.24
2023-05-22T19:15:13.782Z,19.23
2023-05-22T19:17:46.062Z,19.06
2023-05-22T19:20:16.357Z,18.92
2023-05-22T19:22:46.431Z,18.88
2023-05-22T19:25:17.187Z,18.78
2023-05-22T19:27:51.166Z,18.83
2023-05-22T19:30:25.014Z,18.76
2023-05-22T19:32:58.522Z,18.78
2023-05-22T19:35:28.680Z,18.86
2023-05-22T19:38:01.617Z,18.73
2023-05-22T19:40:35.359Z,18.77
2023-05-22T19:43:03.072Z,18.68
2023-05-22T19:45:35.652Z,18.73
2023-05-22T19:48:03.379Z,18.63
2023-05-22T19:50:31.045Z,18.60
2023-05-22T19:53:01.635Z,18.60
2023-05-22T19:55:28.952Z,18.55
2023-05-22T19:57:57.081Z,18.64
2023-05-22T20:00:28.475Z,18.61
2023-05-22T20:02:56.312Z,18.60
2023-05-22T20:05:27.036Z,18.58
2023-05-22T20:07:58.559Z,18.50
2023-05-22T20:10:26.148Z,18.52
2023-05-22T20:12:57.462Z,18.43
2023-05-22T20:15:25.085Z,18.47
2023-05-22T20:17:55.858Z,18.42
2023-05-22T20:20:29.824Z,18.39
2023-05-22T20:22:58.612Z,18.34
2023-05-22T20:25:36.837Z,18.37
2023-05-22T20:28:04.848Z,18.30
2023-05-22T20:30:33.155Z,18.31
2023-05-22T20:33:01.347Z,18.32
2023-05-22T20:35:32.370Z,18.38
2023-05-22T20:38:07.014Z,18.39
2023-05-22T20:40:36.304Z,18.38
2023-05-22T20:43:06.834Z,18.30
2023-05-22T20:45:37.488Z,18.35
2023-05-22T20:48:04.798Z,18.40
2023-05-22T20:50:39.799Z,18.46
2023-05-22T20:53:07.119Z,18.35
2023-05-22T20:55:34.460Z,18.37
2023-05-22T20:58:04.931Z,18.44
2023-05-22T21:00:32.194Z,18.38
2023-05-22T21:03:02.436Z,18.28
2023-05-22T21:05:29.897Z,18.23
2023-05-22T21:08:06.970Z,18.19
2023-05-22T21:10:37.388Z,18.07
2023-05-22T21:13:07.858Z,18.04
2023-05-22T21:15:35.440Z,18.00
2023-05-22T21:18:02.866Z,17.82
2023-05-22T21:20:30.264Z,17.80
2023-05-22T21:22:57.332Z,17.82
2023-05-22T21:25:27.502Z,17.74
2023-05-22T21:27:55.290Z,17.69
2023-05-22T21:30:22.486Z,17.71
2023-05-22T21:32:52.566Z,17.67
2023-05-22T21:35:24.781Z,17.76
2023-05-22T21:37:52.818Z,17.67
2023-05-22T21:40:30.444Z,17.71
2023-05-22T21:43:02.414Z,17.72
2023-05-22T21:45:38.889Z,17.76
2023-05-22T21:48:06.294Z,17.70
2023-05-22T21:50:33.640Z,17.62
2023-05-22T21:53:00.986Z,17.63
2023-05-22T21:55:28.162Z,17.60
2023-05-22T21:57:56.376Z,17.61
2023-05-22T22:00:23.687Z,17.54
2023-05-22T22:02:51.029Z,17.58
2023-05-22T22:05:18.900Z,17.52
2023-05-22T22:07:46.099Z,17.53
2023-05-22T22:10:13.262Z,17.63
2023-05-22T22:12:40.478Z,17.55
2023-05-22T22:15:08.642Z,17.53
2023-05-22T22:17:36.196Z,17.42
2023-05-22T22:20:04.085Z,17.38
2023-05-22T22:22:31.266Z,17.36
2023-05-22T22:25:01.596Z,17.36
2023-05-22T22:27:29.778Z,17.32
2023-05-22T22:30:02.851Z,17.20
2023-05-22T22:32:32.144Z,17.20
2023-05-22T22:34:59.296Z,17.14
2023-05-22T22:37:26.432Z,17.04
2023-05-22T22:39:53.556Z,16.97
2023-05-22T22:42:21.866Z,16.76
2023-05-22T22:44:48.969Z,16.70
2023-05-22T22:47:16.091Z,16.64
2023-05-22T22:49:43.221Z,16.55
2023-05-22T22:52:12.523Z,16.53
2023-05-22T22:54:40.212Z,16.47
2023-05-22T22:57:08.695Z,16.53
2023-05-22T22:59:43.844Z,16.49
2023-05-22T23:02:15.129Z,16.50
2023-05-22T23:04:42.460Z,16.52
2023-05-22T23:07:09.953Z,16.74
2023-05-22T23:09:40.326Z,16.94
2023-05-22T23:12:11.644Z,17.03
2023-05-22T23:14:39.170Z,17.03
2023-05-22T23:17:12.176Z,17.01
2023-05-22T23:19:45.921Z,17.05
2023-05-22T23:22:21.077Z,16.96
2023-05-22T23:25:15.532Z,16.95
2023-05-22T23:27:43.308Z,16.96
2023-05-22T23:30:28.564Z,17.04
2023-05-22T23:33:03.476Z,16.98
2023-05-22T23:35:43.978Z,17.01
2023-05-22T23:38:11.845Z,16.96
2023-05-22T23:40:39.317Z,16.85
2023-05-22T23:43:15.441Z,16.77
2023-05-22T23:45:45.734Z,16.74
2023-05-22T23:48:13.947Z,16.66
2023-05-22T23:50:41.815Z,16.69
2023-05-22T23:53:14.363Z,16.73
2023-05-22T23:55:46.667Z,16.71
2023-05-22T23:58:18.768Z,16.60
